Alturas, California
Current Conditions -  °F | °C
As of 3:55 AM on Monday 26 Jan 2015 (Local Time) from KAAT Reporting Station
Clear Clear  
Wind Chill: 24°   Ceiling: Unl
Heat Index: 31°   Visibility: 10mi
Dew Point: 25°   Wind: 7mph
Humidity: 79%   Direction: 100°E
Pressure: 30.2"   Gusts: NA
Location:  41.49°N, 120.54°W
Report Text: KAAT 261155Z AUTO 10006KT 10SM CLR M01/M04 A3020 RMK AO2 SLP214 T10061039 10028 21017 50001 $
Loading
Personal Weather Stations






























Interactive Weather Map New forecast layout! Learn more

10-Day Weather Forecast

Advertisements
Track Severe Weather on mobile